Terminal Aerodrome Forecast
Issued by NWS

Home | Current Version | Previous Version | Text Only | Print | Product List | Glossary On
Versions: 1 2 3 4 5 6 7 8 9 10 11 12 13
000
FTUS46 KHNX 031727
TAFFAT
TAF
KFAT 031727Z 0318/0418 VRB04KT P6SM BKN250
     FM040000 31006KT P6SM SCT120 BKN200
      TEMPO 0404/0408 32011G17KT=

USA.gov is the U.S. government's official web portal to all federal, state and local government web resources and services.